createdAt,value
2023-12-02T00:01:15.905Z,98810.88
2023-12-02T00:04:05.758Z,98797.94
2023-12-02T00:06:55.617Z,98796.47
2023-12-02T00:09:43.581Z,98780.44
2023-12-02T00:12:31.712Z,98764.75
2023-12-02T00:15:20.109Z,98762.00
2023-12-02T00:18:08.211Z,98721.09
2023-12-02T00:20:57.726Z,98702.75
2023-12-02T00:23:45.763Z,98673.94
2023-12-02T00:26:33.779Z,98669.06
2023-12-02T00:29:21.770Z,98653.78
2023-12-02T00:32:09.733Z,97671.78
2023-12-02T00:34:58.728Z,97591.78
2023-12-02T00:37:48.243Z,97646.81
2023-12-02T00:40:36.249Z,97634.88
2023-12-02T00:43:24.322Z,97630.94
2023-12-02T00:46:12.609Z,97600.34
2023-12-02T00:49:00.725Z,97577.63
2023-12-02T00:51:48.762Z,97593.41
2023-12-02T00:54:38.163Z,97561.81
2023-12-02T00:57:26.166Z,97583.25
2023-12-02T01:00:15.548Z,97612.44
2023-12-02T01:03:03.706Z,97617.25
2023-12-02T01:05:51.790Z,97618.81
2023-12-02T01:08:39.788Z,97602.22
2023-12-02T01:11:29.146Z,97580.16
2023-12-02T01:14:17.813Z,97540.06
2023-12-02T01:17:06.147Z,97486.38
2023-12-02T01:19:54.200Z,97212.91
2023-12-02T01:22:42.340Z,97107.88
2023-12-02T01:25:30.321Z,97056.25
2023-12-02T01:28:19.729Z,96997.69
2023-12-02T01:31:08.317Z,96976.47
2023-12-02T01:33:56.362Z,96914.69
2023-12-02T01:36:44.419Z,96917.78
2023-12-02T01:39:32.448Z,96897.00
2023-12-02T01:42:21.196Z,96898.78
2023-12-02T01:45:12.351Z,96892.25
2023-12-02T01:48:01.721Z,96876.56
2023-12-02T01:50:49.836Z,96878.63
2023-12-02T01:53:39.078Z,96876.66
2023-12-02T01:56:27.591Z,96878.75
2023-12-02T01:59:16.337Z,96875.97
2023-12-02T02:02:06.153Z,96859.97
2023-12-02T02:04:54.484Z,96867.38
2023-12-02T02:07:42.648Z,96875.19
2023-12-02T02:10:30.699Z,96882.13
2023-12-02T02:13:18.671Z,96880.91
2023-12-02T02:16:07.613Z,96910.53
2023-12-02T02:18:57.023Z,96918.34
2023-12-02T02:21:46.446Z,96897.69
2023-12-02T02:24:34.417Z,96918.97
2023-12-02T02:27:22.444Z,96912.69
2023-12-02T02:30:11.322Z,96912.69
2023-12-02T02:32:59.446Z,96916.00
2023-12-02T02:35:48.429Z,96918.00
2023-12-02T02:38:37.833Z,96939.44
2023-12-02T02:41:25.850Z,96953.47
2023-12-02T02:44:13.840Z,96962.88
2023-12-02T02:47:01.891Z,96988.16
2023-12-02T02:49:50.002Z,97001.44
2023-12-02T02:52:38.056Z,97013.13
2023-12-02T02:55:27.452Z,97024.59
2023-12-02T02:58:15.450Z,97043.47
2023-12-02T03:01:03.425Z,97041.06
2023-12-02T03:03:51.484Z,97046.78
2023-12-02T03:06:39.628Z,97059.44
2023-12-02T03:09:27.690Z,97090.09
2023-12-02T03:12:17.042Z,97078.84
2023-12-02T03:15:05.890Z,97109.91
2023-12-02T03:17:54.485Z,97103.72
2023-12-02T03:20:42.703Z,97120.22
2023-12-02T03:23:30.690Z,97125.81
2023-12-02T03:26:19.063Z,97114.13
2023-12-02T03:29:08.394Z,97129.22
2023-12-02T03:31:56.372Z,97143.44
2023-12-02T03:34:44.548Z,97139.72
2023-12-02T03:37:32.515Z,97150.25
2023-12-02T03:40:20.461Z,97146.53
2023-12-02T03:43:08.495Z,97147.88
2023-12-02T03:45:57.876Z,97162.28
2023-12-02T03:48:46.219Z,97162.50
2023-12-02T03:51:34.497Z,97178.00
2023-12-02T03:54:22.613Z,97171.97
2023-12-02T03:57:10.599Z,97179.00
2023-12-02T04:00:01.256Z,97182.72
2023-12-02T04:02:50.623Z,97196.16
2023-12-02T04:05:38.561Z,97200.88
2023-12-02T04:08:26.474Z,97198.00
2023-12-02T04:11:14.523Z,97208.13
2023-12-02T04:14:02.503Z,97216.94
2023-12-02T04:16:50.511Z,97204.03
2023-12-02T04:19:39.900Z,97209.28
2023-12-02T04:22:27.886Z,97212.56
2023-12-02T04:25:16.086Z,97212.34
2023-12-02T04:28:04.098Z,97225.38
2023-12-02T04:30:52.940Z,97219.31
2023-12-02T04:33:41.106Z,97219.88
2023-12-02T04:36:31.833Z,97218.53
2023-12-02T04:39:20.253Z,97231.16
2023-12-02T04:42:08.463Z,97226.38
2023-12-02T04:44:56.697Z,97225.28
2023-12-02T04:47:44.677Z,97209.22
2023-12-02T04:50:32.632Z,97205.06
2023-12-02T04:53:21.949Z,97201.31
2023-12-02T04:56:10.931Z,97199.91
2023-12-02T04:58:58.927Z,97184.59
2023-12-02T05:01:46.978Z,97190.00
2023-12-02T05:04:35.565Z,97187.81
2023-12-02T05:07:25.043Z,97197.19
2023-12-02T05:10:14.403Z,97199.50
2023-12-02T05:13:02.751Z,97187.91
2023-12-02T05:15:50.746Z,97200.69
2023-12-02T05:18:38.877Z,97207.09
2023-12-02T05:21:27.047Z,97198.63
2023-12-02T05:24:15.119Z,97197.44
2023-12-02T05:27:04.755Z,97191.13
2023-12-02T05:29:52.741Z,97177.47
2023-12-02T05:32:40.875Z,97198.22
2023-12-02T05:35:28.877Z,97193.47
2023-12-02T05:38:17.111Z,97203.28
2023-12-02T05:41:05.833Z,97190.00
2023-12-02T05:43:55.144Z,97208.88
2023-12-02T05:46:44.557Z,97221.88
2023-12-02T05:49:32.678Z,97224.50
2023-12-02T05:52:20.713Z,97225.06
2023-12-02T05:55:11.066Z,97223.72
2023-12-02T05:57:59.280Z,97221.81
2023-12-02T06:00:49.212Z,97224.00
2023-12-02T06:03:37.278Z,97217.28
2023-12-02T06:06:25.405Z,97218.28
2023-12-02T06:09:13.418Z,97221.91
2023-12-02T06:12:01.417Z,97230.78
2023-12-02T06:14:49.495Z,97233.16
2023-12-02T06:17:38.877Z,97232.34
2023-12-02T06:20:27.433Z,97228.28
2023-12-02T06:23:15.405Z,97225.50
2023-12-02T06:26:03.442Z,97232.22
2023-12-02T06:28:51.725Z,97234.19
2023-12-02T06:31:39.794Z,97227.22
2023-12-02T06:34:29.063Z,97224.75
2023-12-02T06:37:17.083Z,97228.69
2023-12-02T06:40:05.879Z,97217.28
2023-12-02T06:42:53.925Z,97213.78
2023-12-02T06:45:41.941Z,97215.03
2023-12-02T06:48:30.035Z,97202.56
2023-12-02T06:51:20.227Z,97186.19
2023-12-02T06:54:08.259Z,97178.44
2023-12-02T06:56:56.229Z,97195.03
2023-12-02T06:59:46.949Z,97199.53
2023-12-02T07:02:34.959Z,97193.13
2023-12-02T07:05:22.888Z,97198.81
2023-12-02T07:08:12.246Z,97200.22
2023-12-02T07:11:00.198Z,97200.22
2023-12-02T07:13:48.219Z,97213.44
2023-12-02T07:16:36.240Z,97204.53
2023-12-02T07:19:24.297Z,97217.38
2023-12-02T07:22:12.292Z,97240.22
2023-12-02T07:25:01.630Z,97221.66
2023-12-02T07:27:49.861Z,97207.69
2023-12-02T07:30:37.835Z,97209.78
2023-12-02T07:33:25.841Z,97220.53
2023-12-02T07:36:14.544Z,97221.16
2023-12-02T07:39:03.227Z,97223.28
2023-12-02T07:41:52.517Z,97235.94
2023-12-02T07:44:40.531Z,97237.47
2023-12-02T07:47:29.132Z,97236.28
2023-12-02T07:50:17.945Z,97229.84
2023-12-02T07:53:06.025Z,97236.44
2023-12-02T07:55:54.115Z,97236.81
2023-12-02T07:58:43.512Z,97239.91
2023-12-02T08:01:31.597Z,97228.16
2023-12-02T08:04:20.742Z,97228.66
2023-12-02T08:07:08.922Z,97229.94
2023-12-02T08:10:00.239Z,97213.34
2023-12-02T08:12:48.510Z,97230.66
2023-12-02T08:15:40.304Z,97201.75
2023-12-02T08:18:28.208Z,97197.69
2023-12-02T08:21:16.387Z,97177.34
2023-12-02T08:24:04.437Z,97210.72
2023-12-02T08:26:52.444Z,97190.69
2023-12-02T08:29:40.425Z,97181.38
2023-12-02T08:32:29.771Z,97152.88
2023-12-02T08:35:17.786Z,97148.94
2023-12-02T08:38:05.786Z,97113.06
2023-12-02T08:40:56.769Z,97106.00
2023-12-02T08:43:44.848Z,97075.03
2023-12-02T08:46:32.854Z,97066.19
2023-12-02T08:49:22.494Z,97040.94
2023-12-02T08:52:10.553Z,97026.44
2023-12-02T08:54:58.646Z,97020.13
2023-12-02T08:57:46.725Z,97011.06
2023-12-02T09:00:34.813Z,97010.41
2023-12-02T09:03:23.470Z,97004.56
2023-12-02T09:06:12.934Z,96989.56
2023-12-02T09:09:01.384Z,96992.63
2023-12-02T09:11:50.050Z,96976.75
2023-12-02T09:14:38.759Z,96961.56
2023-12-02T09:18:00.584Z,96947.94
2023-12-02T09:20:50.675Z,96944.94
2023-12-02T09:23:40.157Z,96954.81
2023-12-02T09:26:29.825Z,96964.28
2023-12-02T09:29:18.039Z,96934.53
2023-12-02T09:32:27.432Z,96939.78
2023-12-02T09:35:15.812Z,96934.16
2023-12-02T09:38:05.310Z,96931.06
2023-12-02T09:41:29.478Z,96932.84
2023-12-02T09:44:31.479Z,96917.44
2023-12-02T09:47:21.794Z,96925.16
2023-12-02T09:50:11.639Z,96920.41
2023-12-02T09:53:12.509Z,96896.66
2023-12-02T09:56:01.318Z,96895.50
2023-12-02T09:58:53.801Z,96862.63
2023-12-02T10:01:44.956Z,96858.91
2023-12-02T10:04:44.762Z,96827.47
2023-12-02T10:07:47.814Z,96805.22
2023-12-02T10:10:44.660Z,96792.06
2023-12-02T10:13:46.547Z,96749.91
2023-12-02T10:16:39.123Z,96730.38
2023-12-02T10:19:32.824Z,96714.63
2023-12-02T10:22:25.417Z,96697.38
2023-12-02T10:25:24.888Z,96693.06
2023-12-02T10:28:23.388Z,96673.28
2023-12-02T10:31:20.439Z,96665.69
2023-12-02T10:34:17.412Z,96662.13
2023-12-02T10:37:09.247Z,96667.53
2023-12-02T10:40:00.752Z,96630.56
2023-12-02T10:42:54.055Z,96625.28
2023-12-02T10:45:43.349Z,96603.09
2023-12-02T10:48:33.650Z,96586.25
2023-12-02T10:51:24.662Z,96590.34
2023-12-02T10:54:16.246Z,96572.19
2023-12-02T10:57:08.337Z,96565.78
2023-12-02T11:00:07.838Z,96569.34
2023-12-02T11:03:02.090Z,96598.44
2023-12-02T11:05:57.711Z,96592.78
2023-12-02T11:08:53.744Z,96591.22
2023-12-02T11:11:54.391Z,96599.09
2023-12-02T11:14:44.371Z,96611.38
2023-12-02T11:17:40.075Z,96616.50
2023-12-02T11:20:38.712Z,96630.34
2023-12-02T11:23:44.787Z,96638.25
2023-12-02T11:26:41.370Z,96670.22
2023-12-02T11:29:40.030Z,96711.06
2023-12-02T11:32:41.362Z,96736.88
2023-12-02T11:35:37.396Z,96769.00
2023-12-02T11:38:29.884Z,96785.59
2023-12-02T11:41:25.880Z,96806.03
2023-12-02T11:44:24.348Z,96800.69
2023-12-02T11:47:29.306Z,96788.69
2023-12-02T11:50:29.324Z,96786.13
2023-12-02T11:53:28.746Z,96774.16
2023-12-02T11:56:18.845Z,96750.66
2023-12-02T11:59:17.770Z,96762.41
2023-12-02T12:02:21.122Z,96739.94
2023-12-02T12:05:25.572Z,96726.94
2023-12-02T12:08:20.036Z,96717.97
2023-12-02T12:11:13.907Z,96716.44
2023-12-02T12:14:05.767Z,96713.13
2023-12-02T12:16:55.313Z,96694.97
2023-12-02T12:19:43.355Z,96698.56
2023-12-02T12:22:31.373Z,96701.63
2023-12-02T12:25:20.965Z,96708.78
2023-12-02T12:28:09.587Z,96700.59
2023-12-02T12:30:57.578Z,96695.50
2023-12-02T12:33:54.198Z,96667.41
2023-12-02T12:36:44.670Z,96667.13
2023-12-02T12:39:34.098Z,96662.78
2023-12-02T12:42:22.914Z,96641.31
2023-12-02T12:45:10.944Z,96622.66
2023-12-02T12:47:58.997Z,96621.34
2023-12-02T12:50:48.669Z,96616.22
2023-12-02T12:53:42.466Z,96613.66
2023-12-02T12:56:40.334Z,96601.94
2023-12-02T12:59:34.998Z,96602.47
2023-12-02T13:02:30.932Z,96597.59
2023-12-02T13:05:19.180Z,96597.13
2023-12-02T13:08:24.729Z,96595.28
2023-12-02T13:11:22.574Z,96593.47
2023-12-02T13:14:27.259Z,96591.66
2023-12-02T13:17:16.100Z,96582.97
2023-12-02T13:20:08.663Z,96586.00
2023-12-02T13:23:04.700Z,96588.28
2023-12-02T13:25:59.137Z,96581.09
2023-12-02T13:28:48.034Z,96589.25
2023-12-02T13:31:40.412Z,96587.72
2023-12-02T13:34:37.008Z,96594.63
2023-12-02T13:37:41.250Z,96602.56
2023-12-02T13:40:36.865Z,96599.50
2023-12-02T13:43:31.045Z,96598.72
2023-12-02T13:46:19.833Z,96615.63
2023-12-02T13:49:18.029Z,96611.25
2023-12-02T13:52:11.759Z,96617.91
2023-12-02T13:55:19.180Z,96607.91
2023-12-02T13:58:15.948Z,96604.56
2023-12-02T14:01:09.419Z,96621.44
2023-12-02T14:04:15.112Z,96608.38
2023-12-02T14:07:10.464Z,96617.28
2023-12-02T14:09:59.387Z,96621.13
2023-12-02T14:13:05.306Z,96602.41
2023-12-02T14:16:25.521Z,96605.72
2023-12-02T14:19:43.405Z,96610.88
2023-12-02T14:22:50.702Z,96626.50
2023-12-02T14:26:01.783Z,96636.28
2023-12-02T14:29:02.242Z,96646.28
2023-12-02T14:32:06.782Z,96660.59
2023-12-02T14:35:16.069Z,96671.63
2023-12-02T14:38:37.405Z,96671.88
2023-12-02T14:41:43.860Z,96688.22
2023-12-02T14:44:33.214Z,96695.38
2023-12-02T14:47:23.316Z,96699.50
2023-12-02T14:50:11.798Z,96703.84
2023-12-02T14:52:59.975Z,96709.22
2023-12-02T14:55:48.100Z,96712.78
2023-12-02T14:58:36.599Z,96722.22
2023-12-02T15:01:32.853Z,96725.31
2023-12-02T15:04:22.321Z,96742.97
2023-12-02T15:07:10.387Z,96745.53
2023-12-02T15:10:01.042Z,96758.56
2023-12-02T15:12:50.123Z,96788.72
2023-12-02T15:15:39.810Z,96800.25
2023-12-02T15:18:30.012Z,96807.91
2023-12-02T15:21:19.950Z,96830.66
2023-12-02T15:27:11.621Z,96844.72
2023-12-02T15:29:59.615Z,96851.88
2023-12-02T15:32:47.561Z,96863.63
2023-12-02T15:35:35.647Z,96869.03
2023-12-02T15:38:24.954Z,96873.63
2023-12-02T15:41:12.987Z,96884.59
2023-12-02T15:44:01.038Z,96888.19
2023-12-02T15:46:50.286Z,96895.09
2023-12-02T15:49:38.401Z,96889.72
2023-12-02T15:52:26.789Z,96912.72
2023-12-02T15:55:17.887Z,96914.28
2023-12-02T15:58:06.879Z,96915.56
2023-12-02T16:00:54.978Z,96945.75
2023-12-02T16:03:45.572Z,96921.94
2023-12-02T16:06:34.838Z,96929.88
2023-12-02T16:09:24.181Z,96931.13
2023-12-02T16:12:18.024Z,96940.63
2023-12-02T16:15:07.040Z,96957.50
2023-12-02T16:17:55.678Z,96964.38
2023-12-02T16:20:44.947Z,96964.91
2023-12-02T16:23:33.181Z,96962.34
2023-12-02T16:26:22.077Z,96948.28
2023-12-02T16:29:12.331Z,96944.19
2023-12-02T16:32:00.801Z,96921.94
2023-12-02T16:34:49.588Z,96909.66
2023-12-02T16:37:37.967Z,96915.28
2023-12-02T16:40:26.723Z,96921.66
2023-12-02T16:43:14.755Z,96909.13
2023-12-02T16:46:06.735Z,96903.75
2023-12-02T16:48:56.050Z,96906.56
2023-12-02T16:51:45.204Z,96905.03
2023-12-02T16:54:34.336Z,96889.69
2023-12-02T16:57:27.246Z,96855.19
2023-12-02T17:00:19.803Z,96858.50
2023-12-02T17:03:11.273Z,96817.59
2023-12-02T17:06:07.635Z,96799.22
2023-12-02T17:08:57.858Z,96791.06
2023-12-02T17:11:46.008Z,96781.34
2023-12-02T17:14:36.354Z,96767.28
2023-12-02T17:17:25.664Z,96762.41
2023-12-02T17:20:16.230Z,96745.06
2023-12-02T17:23:04.200Z,96722.03
2023-12-02T17:25:57.025Z,96683.69
2023-12-02T17:28:45.109Z,96674.00
2023-12-02T17:31:33.137Z,96670.69
2023-12-02T17:34:21.510Z,96661.00
2023-12-02T17:37:10.857Z,96593.00
2023-12-02T17:39:59.440Z,96588.66
2023-12-02T17:42:47.651Z,96546.50
2023-12-02T17:45:35.727Z,96498.19
2023-12-02T17:48:24.083Z,96457.31
2023-12-02T17:51:13.301Z,96396.22
2023-12-02T17:54:03.233Z,96429.19
2023-12-02T17:56:52.502Z,96410.28
2023-12-02T17:59:40.524Z,96396.47
2023-12-02T18:02:28.547Z,96358.91
2023-12-02T18:05:17.048Z,96300.88
2023-12-02T18:08:06.244Z,96261.53
2023-12-02T18:10:55.576Z,96202.28
2023-12-02T18:13:43.570Z,96133.28
2023-12-02T18:16:31.605Z,96077.81
2023-12-02T18:19:19.693Z,96056.00
2023-12-02T18:22:15.486Z,96013.59
2023-12-02T18:25:03.889Z,96095.94
2023-12-02T18:27:53.263Z,96070.91
2023-12-02T18:30:41.304Z,96059.69
2023-12-02T18:33:29.412Z,96048.97
2023-12-02T18:36:17.667Z,96030.03
2023-12-02T18:39:05.835Z,96017.56
2023-12-02T18:41:53.962Z,95993.50
2023-12-02T18:44:43.924Z,95962.84
2023-12-02T18:47:31.964Z,95937.38
2023-12-02T18:50:20.022Z,95888.34
2023-12-02T18:53:08.033Z,95880.00
2023-12-02T18:55:56.030Z,95781.13
2023-12-02T18:58:44.014Z,95636.84
2023-12-02T19:01:33.524Z,95395.81
2023-12-02T19:04:21.550Z,95375.41
2023-12-02T19:07:10.528Z,95316.66
2023-12-02T19:09:58.830Z,95340.97
2023-12-02T19:12:46.917Z,95340.03
2023-12-02T19:15:34.912Z,95353.09
2023-12-02T19:18:24.327Z,95326.06
2023-12-02T19:21:16.613Z,95299.94
2023-12-02T19:24:05.427Z,95240.31
2023-12-02T19:26:53.494Z,95233.25
2023-12-02T19:29:41.446Z,95219.28
2023-12-02T19:32:29.429Z,95048.03
2023-12-02T19:35:19.353Z,95109.03
2023-12-02T19:38:07.396Z,95149.59
2023-12-02T19:40:55.386Z,95170.34
2023-12-02T19:43:43.392Z,95176.19
2023-12-02T19:46:31.402Z,95349.56
2023-12-02T19:49:19.384Z,95350.00
2023-12-02T19:52:08.953Z,95361.47
2023-12-02T19:54:56.979Z,95349.44
2023-12-02T19:57:45.302Z,95423.06
2023-12-02T20:00:33.523Z,95441.41
2023-12-02T20:03:21.947Z,95427.28
2023-12-02T20:06:10.787Z,95428.69
2023-12-02T20:09:00.188Z,95423.00
2023-12-02T20:11:48.232Z,95406.34
2023-12-02T20:14:36.189Z,95422.88
2023-12-02T20:17:24.172Z,95409.09
2023-12-02T20:20:14.174Z,95398.09
2023-12-02T20:23:02.202Z,95194.91
2023-12-02T20:25:51.579Z,95207.69
2023-12-02T20:28:40.791Z,95234.00
2023-12-02T20:31:29.474Z,95222.16
2023-12-02T20:34:17.552Z,95193.72
2023-12-02T20:37:05.777Z,95191.16
2023-12-02T20:39:53.903Z,95179.47
2023-12-02T20:42:44.393Z,95163.38
2023-12-02T20:45:32.767Z,95186.38
2023-12-02T20:48:20.774Z,95190.38
2023-12-02T20:51:09.801Z,95200.56
2023-12-02T20:53:57.895Z,95222.50
2023-12-02T20:56:45.910Z,95239.41
2023-12-02T20:59:36.379Z,95245.50
2023-12-02T21:02:24.912Z,95257.47
2023-12-02T21:05:13.585Z,95299.03
2023-12-02T21:08:01.537Z,95281.78
2023-12-02T21:10:49.560Z,95297.38
2023-12-02T21:13:37.521Z,95290.06
2023-12-02T21:16:26.924Z,95267.88
2023-12-02T21:19:15.616Z,95276.28
2023-12-02T21:22:03.933Z,95245.03
2023-12-02T21:24:52.032Z,95196.66
2023-12-02T21:27:40.116Z,95192.50
2023-12-02T21:30:46.853Z,95223.28
2023-12-02T21:33:37.073Z,95221.66
2023-12-02T21:36:25.382Z,95215.50
2023-12-02T21:39:20.803Z,95168.94
2023-12-02T21:42:08.858Z,89567.09
2023-12-02T21:44:57.246Z,92438.31
2023-12-02T21:47:45.262Z,92489.34
2023-12-02T21:50:40.394Z,92472.56
2023-12-02T21:53:32.750Z,92513.03
2023-12-02T21:56:20.983Z,92516.72
2023-12-02T21:59:10.202Z,92470.78
2023-12-02T22:01:58.958Z,92524.31
2023-12-02T22:04:47.243Z,92531.59
2023-12-02T22:07:36.583Z,92533.81
2023-12-02T22:10:29.343Z,92560.03
2023-12-02T22:13:21.637Z,92567.28
2023-12-02T22:16:10.127Z,92540.31
2023-12-02T22:18:58.104Z,92572.72
2023-12-02T22:21:46.317Z,92568.34
2023-12-02T22:24:38.901Z,92577.44
2023-12-02T22:27:38.193Z,92492.88
2023-12-02T22:30:27.037Z,92256.78
2023-12-02T22:33:16.631Z,92377.03
2023-12-02T22:36:06.537Z,92395.59
2023-12-02T22:38:55.100Z,92384.31
2023-12-02T22:41:44.504Z,92368.69
2023-12-02T22:44:35.967Z,92374.88
2023-12-02T22:47:24.024Z,92358.47
2023-12-02T22:50:12.194Z,92377.78
2023-12-02T22:53:00.219Z,92345.69
2023-12-02T22:55:57.274Z,92350.44
2023-12-02T22:58:48.627Z,92359.56
2023-12-02T23:01:38.101Z,92352.28
2023-12-02T23:04:37.052Z,92338.03
2023-12-02T23:07:56.655Z,92323.13
2023-12-02T23:10:44.702Z,92296.16
2023-12-02T23:13:52.328Z,92282.63
2023-12-02T23:16:41.654Z,92271.69
2023-12-02T23:19:35.257Z,92228.31
2023-12-02T23:22:24.972Z,92262.22
2023-12-02T23:25:19.667Z,92284.47
2023-12-02T23:28:08.290Z,92337.69
2023-12-02T23:30:57.914Z,92326.03
2023-12-02T23:33:46.082Z,92343.16
2023-12-02T23:36:35.462Z,92362.09
2023-12-02T23:39:28.557Z,92390.53
2023-12-02T23:42:33.592Z,92409.09
2023-12-02T23:45:21.658Z,92422.19
2023-12-02T23:48:11.802Z,92431.25
2023-12-02T23:50:59.943Z,92459.25
2023-12-02T23:53:47.882Z,92487.28
2023-12-02T23:56:35.926Z,92499.28
2023-12-02T23:59:24.271Z,92492.00
